Time;durP1;ratioP1;P1;durP2;ratioP2;P2;SDS_P1;SDS_P2;PMS_P1;PMS_P2;Temp;Humidity;BMP_temperature;BMP_pressure;BME280_temperature;BME280_humidity;BME280_pressure;Samples;Min_cycle;Max_cycle;Signal;HPM_P1;HPM_P2
2024/02/11 02:04:01;;;;;;;62.37;44.60;;;10.80;99.90;;;;;;4887126;29;20425;-81
2024/02/11 02:06:28;;;;;;;51.63;40.63;;;10.80;99.90;;;;;;4910111;28;48565;-80
2024/02/11 02:08:55;;;;;;;58.47;43.00;;;10.80;99.90;;;;;;4911722;28;39042;-79
2024/02/11 02:11:22;;;;;;;55.60;40.63;;;10.80;99.90;;;;;;4912047;28;38309;-80
2024/02/11 02:13:48;;;;;;;74.67;47.67;;;10.80;99.90;;;;;;4912633;28;38327;-78
2024/02/11 02:16:14;;;;;;;53.70;41.97;;;10.80;99.90;;;;;;4906388;28;38486;-79
2024/02/11 02:18:45;;;;;;;67.43;44.67;;;10.80;99.90;;;;;;4911769;28;40223;-80
2024/02/11 02:21:11;;;;;;;57.53;42.60;;;10.80;99.90;;;;;;4921311;28;37334;-80
2024/02/11 02:23:37;;;;;;;51.43;41.57;;;10.80;99.90;;;;;;4908956;29;36690;-79
2024/02/11 02:26:08;;;;;;;56.83;40.58;;;10.80;99.90;;;;;;4908216;29;38099;-79
2024/02/11 02:28:35;;;;;;;57.97;43.63;;;10.80;99.90;;;;;;4903637;29;37800;-79
2024/02/11 02:31:02;;;;;;;57.85;40.65;;;10.80;99.90;;;;;;4906222;29;37802;-79
2024/02/11 02:33:30;;;;;;;61.80;43.10;;;10.80;99.90;;;;;;4903559;28;47713;-80
2024/02/11 02:35:56;;;;;;;64.72;43.20;;;10.80;99.90;;;;;;4905110;28;36386;-80
2024/02/11 02:38:22;;;;;;;56.58;41.58;;;10.80;99.90;;;;;;4906405;28;39622;-79
2024/02/11 02:40:48;;;;;;;63.25;45.90;;;10.80;99.90;;;;;;4903648;29;37399;-79
2024/02/11 02:43:14;;;;;;;57.65;41.95;;;10.70;99.90;;;;;;4904491;28;38187;-79
2024/02/11 02:45:41;;;;;;;52.72;40.83;;;10.80;99.90;;;;;;4906002;28;36344;-80
2024/02/11 02:48:08;;;;;;;54.47;41.38;;;10.70;99.90;;;;;;4907129;28;37690;-79
2024/02/11 02:50:34;;;;;;;51.10;39.45;;;10.70;99.90;;;;;;4908566;29;36932;-79
2024/02/11 02:53:01;;;;;;;53.23;40.73;;;10.70;99.90;;;;;;4912817;28;38245;-80
2024/02/11 02:55:27;;;;;;;58.25;41.67;;;10.70;99.90;;;;;;4909401;28;48103;-80
2024/02/11 02:57:54;;;;;;;50.97;39.95;;;10.70;99.90;;;;;;4904967;29;41159;-80
2024/02/11 03:00:21;;;;;;;53.60;39.60;;;10.70;99.90;;;;;;4907395;29;36906;-81
2024/02/11 03:02:52;;;;;;;53.38;39.22;;;10.70;99.90;;;;;;4907008;29;38767;-80
2024/02/11 03:05:22;;;;;;;56.05;40.28;;;10.80;99.90;;;;;;4912869;28;36944;-80
2024/02/11 03:07:48;;;;;;;53.65;39.10;;;10.80;99.90;;;;;;4909816;29;38117;-80
2024/02/11 03:10:20;;;;;;;49.00;38.67;;;10.80;99.90;;;;;;4906017;28;37162;-79
2024/02/11 03:12:46;;;;;;;52.90;39.47;;;10.80;99.90;;;;;;4909913;28;38839;-80
2024/02/11 03:15:13;;;;;;;52.30;40.42;;;10.80;99.90;;;;;;4906915;28;36148;-80
2024/02/11 03:17:41;;;;;;;61.88;43.25;;;10.80;99.90;;;;;;4900546;29;40300;-80
2024/02/11 03:20:09;;;;;;;56.85;42.50;;;10.80;99.90;;;;;;4908682;28;38672;-80
2024/02/11 03:22:35;;;;;;;62.20;43.00;;;10.80;99.90;;;;;;4915062;29;37800;-78
2024/02/11 03:25:01;;;;;;;51.60;40.87;;;10.80;99.90;;;;;;4911307;29;37803;-78
2024/02/11 03:27:29;;;;;;;53.70;39.43;;;10.80;99.90;;;;;;4911935;29;37547;-78
2024/02/11 03:29:55;;;;;;;53.83;38.67;;;10.70;99.90;;;;;;4909786;28;37337;-79
2024/02/11 03:32:21;;;;;;;57.63;42.47;;;10.80;99.90;;;;;;4914076;28;38678;-79
2024/02/11 03:34:47;;;;;;;54.23;40.50;;;10.70;99.90;;;;;;4913904;29;36102;-81
2024/02/11 03:37:14;;;;;;;54.00;39.20;;;10.80;99.90;;;;;;4912135;28;37896;-80
2024/02/11 03:39:40;;;;;;;52.23;40.47;;;10.70;99.90;;;;;;4909503;29;37434;-79
2024/02/11 03:42:06;;;;;;;63.43;43.33;;;10.70;99.90;;;;;;4910707;28;38635;-78
2024/02/11 03:44:33;;;;;;;49.50;39.47;;;10.80;99.90;;;;;;4911072;29;37798;-80
2024/02/11 03:47:02;;;;;;;50.40;38.77;;;10.80;99.90;;;;;;4908474;29;37989;-81
2024/02/11 03:49:29;;;;;;;55.27;40.43;;;10.70;99.90;;;;;;4904682;29;47152;-81
2024/02/11 03:51:56;;;;;;;52.10;40.28;;;10.70;99.90;;;;;;4908470;29;35936;-80
2024/02/11 03:54:23;;;;;;;49.20;38.33;;;10.70;99.90;;;;;;4907942;28;37544;-79
2024/02/11 03:56:51;;;;;;;51.05;38.95;;;10.70;99.90;;;;;;4912801;28;38757;-80
2024/02/11 03:59:17;;;;;;;51.23;39.47;;;10.70;99.90;;;;;;4909954;28;36867;-80
2024/02/11 04:01:44;;;;;;;52.73;40.07;;;10.70;99.90;;;;;;4918535;28;37421;-80
2024/02/11 04:04:13;;;;;;;57.53;39.50;;;10.70;99.90;;;;;;4913593;28;36476;-80
2024/02/11 04:06:41;;;;;;;76.15;43.88;;;10.70;99.90;;;;;;4912465;28;39420;-79
2024/02/11 04:09:09;;;;;;;27.53;19.83;;;10.70;99.90;;;;;;4912771;28;38413;-81
2024/02/11 04:11:35;;;;;;;22.97;14.90;;;10.50;99.90;;;;;;4913584;29;37593;-80
2024/02/11 04:14:02;;;;;;;16.47;13.13;;;10.20;99.90;;;;;;4912288;28;36342;-80
2024/02/11 04:16:28;;;;;;;18.93;13.40;;;10.00;99.90;;;;;;4912214;28;47302;-81
2024/02/11 04:18:56;;;;;;;19.40;12.73;;;9.90;99.90;;;;;;4911379;28;38681;-81
2024/02/11 04:21:22;;;;;;;23.07;14.20;;;9.90;99.90;;;;;;4921297;28;37956;-81
2024/02/11 04:23:48;;;;;;;29.20;15.97;;;9.80;99.90;;;;;;4911362;29;36270;-81
2024/02/11 04:26:17;;;;;;;24.93;14.57;;;9.80;99.90;;;;;;4913261;28;37829;-82
2024/02/11 04:28:47;;;;;;;23.53;14.57;;;9.70;99.90;;;;;;4911625;28;37893;-82
2024/02/11 04:31:13;;;;;;;25.97;15.80;;;9.70;99.90;;;;;;4911363;28;38490;-82
2024/02/11 04:33:40;;;;;;;23.03;14.90;;;9.70;99.90;;;;;;4906736;28;37386;-81
2024/02/11 04:36:11;;;;;;;28.67;14.80;;;9.70;99.90;;;;;;4906795;28;38666;-81
2024/02/11 04:38:38;;;;;;;23.03;15.97;;;9.70;99.90;;;;;;4908226;29;38045;-81
2024/02/11 04:41:07;;;;;;;23.70;15.53;;;9.70;99.90;;;;;;4908978;29;37825;-81
2024/02/11 04:43:36;;;;;;;22.63;14.07;;;9.70;99.90;;;;;;4906504;29;36161;-81
2024/02/11 04:46:03;;;;;;;23.23;11.77;;;9.60;99.90;;;;;;4906189;28;37887;-80
2024/02/11 04:48:32;;;;;;;18.97;9.50;;;9.50;99.90;;;;;;4905983;28;37433;-80
2024/02/11 04:51:01;;;;;;;27.03;9.97;;;9.40;99.90;;;;;;4911035;29;38223;-78
2024/02/11 04:53:31;;;;;;;21.90;8.73;;;9.40;99.90;;;;;;4906939;28;47314;-80
2024/02/11 04:55:58;;;;;;;14.57;6.80;;;9.40;99.90;;;;;;4907626;28;40427;-79
2024/02/11 04:58:26;;;;;;;24.10;7.00;;;9.30;99.90;;;;;;4908587;28;38685;-79
2024/02/11 05:00:53;;;;;;;18.33;7.00;;;9.30;99.90;;;;;;4910455;28;38271;-79
2024/02/11 05:03:20;;;;;;;23.47;6.30;;;9.30;99.90;;;;;;4904928;29;37368;-79
2024/02/11 05:05:49;;;;;;;17.03;5.93;;;9.20;99.90;;;;;;4904889;29;38321;-78
2024/02/11 05:08:19;;;;;;;16.07;5.50;;;9.20;99.90;;;;;;4905660;28;38200;-79
2024/02/11 05:10:46;;;;;;;15.70;5.77;;;9.10;99.90;;;;;;4911740;28;37854;-78
2024/02/11 05:13:14;;;;;;;13.13;4.27;;;9.10;99.90;;;;;;4909417;28;37663;-79
2024/02/11 05:15:42;;;;;;;17.70;4.43;;;9.10;99.90;;;;;;4908609;29;38077;-79
2024/02/11 05:18:11;;;;;;;14.37;4.13;;;9.00;99.90;;;;;;4912176;28;37476;-80
2024/02/11 05:20:39;;;;;;;12.83;4.00;;;9.00;99.90;;;;;;4909630;29;37751;-80
2024/02/11 05:23:08;;;;;;;14.60;3.40;;;9.00;99.90;;;;;;4907311;28;37834;-79
2024/02/11 05:25:39;;;;;;;11.70;2.60;;;9.00;99.90;;;;;;4906138;28;36540;-80
2024/02/11 05:28:09;;;;;;;11.23;2.57;;;8.90;99.90;;;;;;4902690;28;37616;-79
2024/02/11 05:30:38;;;;;;;12.30;2.90;;;8.90;99.90;;;;;;4901621;29;36982;-81
2024/02/11 05:33:06;;;;;;;15.93;2.93;;;8.80;99.90;;;;;;4918581;28;35754;-81
2024/02/11 05:35:37;;;;;;;16.70;3.03;;;8.80;99.90;;;;;;4917900;29;39613;-80
2024/02/11 05:38:05;;;;;;;15.90;4.33;;;8.80;99.90;;;;;;4921175;28;37449;-82
2024/02/11 05:40:41;;;;;;;15.53;4.03;;;8.70;99.90;;;;;;4923608;28;37690;-81
2024/02/11 05:43:08;;;;;;;8.70;3.30;;;8.70;99.90;;;;;;4927207;28;36263;-81
2024/02/11 05:45:37;;;;;;;13.87;4.57;;;8.70;99.90;;;;;;4910132;28;40634;-81
2024/02/11 05:48:03;;;;;;;10.87;4.07;;;8.70;99.90;;;;;;4910165;28;38257;-80
2024/02/11 05:50:29;;;;;;;13.83;5.03;;;8.70;99.90;;;;;;4911601;28;37192;-79
2024/02/11 05:52:55;;;;;;;15.00;5.80;;;8.70;99.90;;;;;;4908818;29;35869;-81
2024/02/11 05:55:22;;;;;;;19.93;5.43;;;8.70;99.90;;;;;;4910777;28;37878;-79
2024/02/11 05:57:50;;;;;;;21.20;7.77;;;8.60;99.90;;;;;;4912324;28;38572;-79
2024/02/11 06:00:21;;;;;;;18.80;7.70;;;8.60;99.90;;;;;;4908765;28;38213;-78
2024/02/11 06:02:53;;;;;;;15.17;7.50;;;8.60;99.90;;;;;;4914357;29;47712;-80
2024/02/11 06:05:20;;;;;;;;;;;8.70;99.90;;;;;;4909229;28;38271;-79
2024/02/11 06:07:52;;;;;;;27.37;10.90;;;8.70;99.90;;;;;;4911317;28;37542;-80
2024/02/11 06:10:19;;;;;;;21.40;11.23;;;8.70;99.90;;;;;;4911249;28;37050;-77
2024/02/11 06:12:46;;;;;;;26.70;12.27;;;8.70;99.90;;;;;;4907241;29;36639;-80
2024/02/11 06:15:15;;;;;;;27.47;12.90;;;8.60;99.90;;;;;;4911623;28;37689;-81
2024/02/11 06:17:42;;;;;;;23.00;12.53;;;8.70;99.90;;;;;;4913724;28;37866;-80
2024/02/11 06:20:13;;;;;;;22.97;13.47;;;8.60;99.90;;;;;;4904829;28;37576;-79
2024/02/11 06:22:40;;;;;;;31.83;16.07;;;8.60;99.90;;;;;;4903436;29;36844;-78
2024/02/11 06:25:08;;;;;;;33.17;15.63;;;8.60;99.90;;;;;;4906275;28;37820;-80
2024/02/11 06:27:34;;;;;;;26.23;14.87;;;8.70;99.90;;;;;;4905328;28;37918;-79
2024/02/11 06:30:01;;;;;;;35.27;16.60;;;8.70;99.90;;;;;;4904849;29;38368;-80
2024/02/11 06:32:28;;;;;;;31.30;15.27;;;8.70;99.90;;;;;;4904783;28;36442;-79
2024/02/11 06:34:55;;;;;;;30.80;18.20;;;8.70;99.90;;;;;;4906679;28;38710;-80
2024/02/11 06:37:21;;;;;;;35.33;18.57;;;8.70;99.90;;;;;;4910324;28;38429;-81
2024/02/11 06:39:47;;;;;;;40.60;19.20;;;8.70;99.90;;;;;;4905031;29;38893;-81
2024/02/11 06:42:14;;;;;;;31.13;17.93;;;8.70;99.90;;;;;;4907720;28;39521;-80
2024/02/11 06:44:41;;;;;;;36.73;17.57;;;8.70;99.90;;;;;;4902299;28;37595;-81
2024/02/11 06:47:11;;;;;;;35.33;18.87;;;8.70;99.90;;;;;;4902945;28;37451;-79
2024/02/11 06:49:38;;;;;;;41.53;19.93;;;8.70;99.90;;;;;;4901763;29;38883;-80
2024/02/11 06:52:09;;;;;;;43.90;19.63;;;8.70;99.90;;;;;;4924915;28;37228;-81
2024/02/11 06:54:39;;;;;;;35.00;17.07;;;8.70;99.90;;;;;;4923665;28;39139;-81
2024/02/11 06:57:05;;;;;;;33.07;16.93;;;8.70;99.90;;;;;;4924325;28;38178;-82
2024/02/11 06:59:35;;;;;;;36.90;16.87;;;8.70;99.90;;;;;;4911833;28;38162;-81
2024/02/11 07:02:04;;;;;;;43.70;19.67;;;8.70;99.90;;;;;;4913340;28;37046;-81
2024/02/11 07:04:33;;;;;;;30.20;16.60;;;8.70;99.90;;;;;;4908769;28;40461;-79
2024/02/11 07:07:00;;;;;;;33.13;17.53;;;8.70;99.90;;;;;;4904712;28;37112;-79
2024/02/11 07:09:26;;;;;;;31.73;16.27;;;8.70;99.90;;;;;;4904972;28;36879;-79
2024/02/11 07:11:52;;;;;;;35.33;15.10;;;8.70;99.90;;;;;;4906936;29;37899;-81
2024/02/11 07:14:18;;;;;;;30.80;14.47;;;8.70;99.90;;;;;;4908585;28;38118;-81
2024/02/11 07:16:45;;;;;;;35.60;14.97;;;8.70;99.90;;;;;;4904483;29;37624;-81
2024/02/11 07:19:12;;;;;;;30.87;14.93;;;8.70;99.90;;;;;;4905261;28;36974;-81
2024/02/11 07:21:41;;;;;;;26.63;13.07;;;8.70;99.90;;;;;;4912973;28;36716;-79
2024/02/11 07:24:07;;;;;;;28.03;12.83;;;8.70;99.90;;;;;;4910475;28;39274;-81
2024/02/11 07:26:38;;;;;;;33.73;12.90;;;8.70;99.90;;;;;;4907155;29;37430;-78
2024/02/11 07:29:04;;;;;;;22.30;12.60;;;8.70;99.90;;;;;;4910931;28;37854;-80
2024/02/11 07:31:33;;;;;;;34.97;14.90;;;8.70;99.90;;;;;;4902999;29;37896;-81
2024/02/11 07:34:01;;;;;;;27.27;13.43;;;8.70;99.90;;;;;;4902338;29;39953;-79
2024/02/11 07:36:27;;;;;;;28.87;12.20;;;8.70;99.90;;;;;;4899242;28;47848;-76
2024/02/11 07:38:54;;;;;;;27.80;12.60;;;8.60;99.90;;;;;;4915612;28;38358;-75
2024/02/11 07:41:21;;;;;;;25.40;11.93;;;8.60;99.90;;;;;;4903981;28;37072;-76
2024/02/11 07:43:49;;;;;;;22.83;12.37;;;8.60;99.90;;;;;;4898558;28;38875;-76
2024/02/11 07:46:16;;;;;;;27.07;12.00;;;8.60;99.90;;;;;;4901510;28;37556;-74
2024/02/11 07:48:43;;;;;;;36.53;11.97;;;8.60;99.90;;;;;;4901894;29;39931;-75
2024/02/11 07:51:09;;;;;;;23.77;11.13;;;8.60;99.90;;;;;;4907764;28;36394;-75
2024/02/11 07:53:35;;;;;;;21.50;11.00;;;8.60;99.90;;;;;;4908667;29;37610;-75
2024/02/11 07:56:02;;;;;;;27.63;11.97;;;8.70;99.90;;;;;;4925652;28;37224;-77
2024/02/11 07:58:28;;;;;;;23.83;11.73;;;8.70;99.90;;;;;;4908828;28;37876;-77
2024/02/11 08:00:55;;;;;;;23.10;11.40;;;8.70;99.90;;;;;;4907491;29;36131;-76
2024/02/11 08:03:21;;;;;;;25.17;11.50;;;8.80;99.90;;;;;;4907542;28;37720;-77
2024/02/11 08:05:47;;;;;;;27.47;12.13;;;8.80;99.90;;;;;;4909314;29;37618;-76
2024/02/11 08:08:13;;;;;;;24.93;12.37;;;8.80;99.90;;;;;;4907167;28;37207;-77
2024/02/11 08:10:39;;;;;;;29.87;11.20;;;8.90;99.90;;;;;;4910753;29;36420;-77
2024/02/11 08:13:07;;;;;;;26.30;12.73;;;8.90;99.90;;;;;;4909541;28;41108;-78
2024/02/11 08:15:37;;;;;;;31.50;12.40;;;8.90;99.90;;;;;;4910632;28;38506;-74
2024/02/11 08:18:08;;;;;;;25.03;13.40;;;8.90;99.90;;;;;;4904369;28;36989;-75
2024/02/11 08:20:34;;;;;;;24.60;13.10;;;8.90;99.90;;;;;;4902057;29;36530;-75
2024/02/11 08:23:03;;;;;;;23.97;13.43;;;8.90;99.90;;;;;;4902387;29;37864;-76
2024/02/11 08:25:29;;;;;;;24.57;12.57;;;9.00;99.90;;;;;;4902463;29;48059;-76
2024/02/11 08:27:55;;;;;;;25.13;12.27;;;9.00;99.90;;;;;;4900676;28;36905;-75
2024/02/11 08:30:22;;;;;;;28.50;11.10;;;9.00;99.90;;;;;;4900436;29;36666;-76
2024/02/11 08:32:48;;;;;;;24.27;9.63;;;9.10;99.90;;;;;;4901957;29;38374;-76
2024/02/11 08:35:15;;;;;;;26.63;7.20;;;9.10;99.90;;;;;;4902073;28;38157;-77
2024/02/11 08:37:41;;;;;;;22.43;7.63;;;9.10;99.90;;;;;;4902701;29;36816;-74
2024/02/11 08:40:08;;;;;;;21.20;6.73;;;9.10;99.90;;;;;;4917542;28;35799;-75
2024/02/11 08:42:35;;;;;;;23.00;7.07;;;9.10;99.90;;;;;;4901862;28;39033;-78
2024/02/11 08:45:01;;;;;;;24.83;7.20;;;9.10;99.90;;;;;;4898624;29;38932;-81
2024/02/11 08:47:28;;;;;;;24.47;7.17;;;9.20;99.90;;;;;;4904853;28;36685;-77
2024/02/11 08:49:54;;;;;;;16.20;6.70;;;9.20;99.90;;;;;;4904845;29;36733;-79
2024/02/11 08:52:21;;;;;;;20.73;7.90;;;9.20;99.90;;;;;;4905424;28;37601;-76
2024/02/11 08:54:47;;;;;;;25.57;8.33;;;9.30;99.90;;;;;;4909355;29;36498;-76
2024/02/11 08:57:17;;;;;;;18.50;8.07;;;9.20;99.90;;;;;;4906355;28;38274;-76
2024/02/11 08:59:46;;;;;;;18.60;8.17;;;9.20;99.90;;;;;;4909047;28;37490;-76
2024/02/11 09:02:14;;;;;;;18.30;8.00;;;9.30;99.90;;;;;;4913719;28;39331;-78
2024/02/11 09:04:42;;;;;;;22.13;8.37;;;9.40;99.90;;;;;;4906881;28;37717;-78
2024/02/11 09:07:09;;;;;;;22.80;8.33;;;9.40;99.90;;;;;;4922203;28;37079;-78
2024/02/11 09:09:35;;;;;;;21.33;8.77;;;9.50;99.90;;;;;;4911622;29;36008;-77
2024/02/11 09:12:03;;;;;;;15.80;9.13;;;9.50;99.90;;;;;;4912454;28;38905;-77
2024/02/11 09:14:31;;;;;;;27.27;9.83;;;9.50;99.90;;;;;;4911748;28;39349;-77
2024/02/11 09:16:59;;;;;;;24.63;10.63;;;9.40;99.90;;;;;;4909206;29;38430;-75
2024/02/11 09:19:29;;;;;;;24.53;12.00;;;9.50;99.90;;;;;;4907338;29;37152;-76
2024/02/11 09:21:57;;;;;;;26.33;10.87;;;9.50;99.90;;;;;;4907075;29;37862;-76
2024/02/11 09:24:24;;;;;;;27.60;11.57;;;9.50;99.90;;;;;;4911541;28;38920;-75
2024/02/11 09:26:53;;;;;;;28.60;10.87;;;9.50;99.90;;;;;;4906935;28;36716;-77
2024/02/11 09:29:22;;;;;;;22.97;11.00;;;9.50;99.90;;;;;;4905598;28;37814;-77
2024/02/11 09:31:49;;;;;;;23.23;11.60;;;9.50;99.90;;;;;;4903643;29;39250;-76
2024/02/11 09:34:15;;;;;;;26.17;11.73;;;9.60;99.90;;;;;;4904195;29;37763;-81
2024/02/11 09:36:43;;;;;;;24.90;12.00;;;9.60;99.90;;;;;;4904092;28;37178;-79
2024/02/11 09:39:13;;;;;;;26.67;12.03;;;9.60;99.90;;;;;;4904382;28;38070;-81
2024/02/11 09:41:39;;;;;;;28.97;11.23;;;9.60;99.90;;;;;;4901095;29;38644;-81
2024/02/11 09:44:07;;;;;;;25.60;12.20;;;9.70;99.90;;;;;;4905930;29;38794;-80
2024/02/11 09:46:37;;;;;;;26.20;14.00;;;9.70;99.90;;;;;;4916989;28;37154;-80
2024/02/11 09:49:22;;;;;;;29.07;13.23;;;9.80;99.90;;;;;;4934267;28;36318;-77
2024/02/11 09:51:50;;;;;;;27.13;14.90;;;9.70;99.90;;;;;;4917430;28;39028;-81
2024/02/11 09:54:18;;;;;;;32.93;14.93;;;9.60;99.90;;;;;;4906467;28;38209;-81
2024/02/11 09:56:44;;;;;;;28.70;14.60;;;9.70;99.90;;;;;;4904788;29;38413;-77
2024/02/11 09:59:12;;;;;;;27.83;14.97;;;9.60;99.90;;;;;;4902724;28;38290;-77
2024/02/11 10:01:39;;;;;;;27.43;14.50;;;9.70;99.90;;;;;;4908888;29;38627;-78
2024/02/11 10:04:06;;;;;;;26.77;14.37;;;9.60;99.90;;;;;;4908871;28;37262;-78
2024/02/11 10:06:37;;;;;;;28.60;15.00;;;9.70;99.90;;;;;;4910949;29;37069;-80
2024/02/11 10:09:05;;;;;;;32.27;14.13;;;9.70;99.90;;;;;;4912391;28;36388;-79
2024/02/11 10:11:34;;;;;;;34.10;14.47;;;9.70;99.90;;;;;;4920326;29;38782;-83
2024/02/11 10:14:00;;;;;;;27.17;14.30;;;9.80;99.90;;;;;;4917087;29;39546;-82
2024/02/11 10:16:28;;;;;;;30.50;14.77;;;9.80;99.90;;;;;;4912227;28;38015;-81
2024/02/11 10:18:55;;;;;;;36.83;15.77;;;9.90;99.90;;;;;;4918886;28;38669;-82
2024/02/11 10:21:21;;;;;;;27.87;14.27;;;9.80;99.90;;;;;;4908126;28;37601;-76
2024/02/11 10:23:47;;;;;;;31.03;15.40;;;9.90;99.90;;;;;;4908916;28;37488;-77
2024/02/11 10:26:15;;;;;;;32.33;15.43;;;9.80;99.90;;;;;;4911031;28;38133;-76
2024/02/11 10:28:41;;;;;;;33.40;14.87;;;9.80;99.90;;;;;;4907170;29;38041;-79
2024/02/11 10:31:07;;;;;;;29.93;15.60;;;9.80;99.90;;;;;;4907790;28;39761;-75
2024/02/11 10:33:34;;;;;;;30.77;15.60;;;9.90;99.90;;;;;;4908422;28;37355;-79
2024/02/11 10:36:03;;;;;;;30.07;14.83;;;10.00;99.90;;;;;;4914494;28;37119;-78
2024/02/11 10:38:30;;;;;;;29.60;13.63;;;10.00;99.90;;;;;;4914798;28;47537;-78
2024/02/11 10:40:58;;;;;;;28.43;13.53;;;10.20;99.90;;;;;;4913013;28;38115;-74
2024/02/11 10:43:26;;;;;;;24.77;13.53;;;10.20;99.90;;;;;;4916715;28;35269;-80
2024/02/11 10:45:53;;;;;;;27.93;14.03;;;10.30;99.90;;;;;;4923409;28;37237;-78
2024/02/11 10:48:21;;;;;;;30.02;13.82;;;10.40;99.90;;;;;;4912368;29;36531;-77
2024/02/11 10:51:14;;;;;;;22.80;12.43;;;10.30;99.90;;;;;;4917241;28;37838;-78
2024/02/11 10:54:03;;;;;;;27.57;13.87;;;10.30;99.90;;;;;;4907833;28;47394;-75
2024/02/11 10:56:33;;;;;;;25.40;12.60;;;10.40;99.90;;;;;;4938197;28;47035;-74
2024/02/11 10:59:13;;;;;;;27.02;12.52;;;10.50;99.90;;;;;;4921738;28;36754;-77
2024/02/11 11:01:40;;;;;;;22.77;10.67;;;10.50;99.90;;;;;;4913758;29;47164;-76
2024/02/11 11:04:15;;;;;;;31.90;15.40;;;10.50;99.90;;;;;;4917907;28;37282;-78
2024/02/11 11:06:42;;;;;;;30.97;15.17;;;10.40;99.90;;;;;;4919456;28;37338;-80
2024/02/11 11:09:09;;;;;;;33.43;17.37;;;10.40;99.90;;;;;;4924800;28;37369;-77
2024/02/11 11:11:35;;;;;;;32.60;17.42;;;10.40;99.90;;;;;;4922958;28;39407;-78
2024/02/11 11:14:09;;;;;;;30.63;17.93;;;10.30;99.90;;;;;;4924784;28;37819;-79
2024/02/11 11:16:41;;;;;;;29.00;17.13;;;10.40;99.90;;;;;;4927994;28;37219;-76
2024/02/11 11:19:14;;;;;;;43.30;19.80;;;10.40;99.90;;;;;;4919232;28;37762;-76
2024/02/11 11:21:50;;;;;;;32.50;18.40;;;10.20;99.90;;;;;;4918895;28;39181;-77
2024/02/11 11:24:18;;;;;;;35.50;17.80;;;10.40;99.90;;;;;;4917608;28;38168;-78
2024/02/11 11:26:56;;;;;;;36.00;17.90;;;10.40;99.90;;;;;;4920778;28;37894;-77
2024/02/11 11:29:32;;;;;;;29.67;15.10;;;10.40;99.90;;;;;;4914902;28;36617;-75
2024/02/11 11:32:11;;;;;;;25.37;14.77;;;10.40;99.90;;;;;;4920505;28;38661;-80
2024/02/11 11:34:38;;;;;;;41.23;17.43;;;10.70;99.90;;;;;;4911369;29;47520;-82
2024/02/11 11:37:13;;;;;;;31.37;14.53;;;10.80;99.90;;;;;;4909338;28;36965;-81
2024/02/11 11:39:46;;;;;;;30.83;13.67;;;10.80;99.90;;;;;;4914650;29;36779;-82
2024/02/11 11:42:14;;;;;;;36.23;14.17;;;10.70;99.90;;;;;;4907625;28;38230;-81
2024/02/11 11:44:43;;;;;;;31.97;13.60;;;10.60;99.90;;;;;;4915216;28;38365;-79
2024/02/11 11:47:13;;;;;;;23.03;12.27;;;10.60;99.90;;;;;;4910989;28;37141;-79
2024/02/11 11:49:41;;;;;;;30.93;14.23;;;10.50;99.90;;;;;;4909411;29;36632;-80
2024/02/11 11:52:08;;;;;;;32.50;12.77;;;10.70;99.90;;;;;;4908838;28;39840;-77
2024/02/11 11:54:34;;;;;;;24.57;12.17;;;10.70;99.90;;;;;;4907457;28;38807;-76
2024/02/11 11:57:02;;;;;;;21.13;11.83;;;10.80;99.90;;;;;;4908387;29;38701;-76
2024/02/11 11:59:28;;;;;;;22.20;9.40;;;11.00;99.90;;;;;;4901503;28;48773;-77
2024/02/11 12:01:56;;;;;;;21.43;9.57;;;10.90;99.90;;;;;;4904694;29;37605;-81
2024/02/11 12:04:22;;;;;;;26.17;10.10;;;10.90;99.90;;;;;;4906078;28;37351;-82
2024/02/11 12:06:53;;;;;;;19.73;7.77;;;10.80;99.90;;;;;;4902163;28;37364;-85
2024/02/11 12:09:20;;;;;;;23.00;8.97;;;10.70;99.90;;;;;;4907254;29;36585;-82
2024/02/11 12:11:49;;;;;;;21.97;8.37;;;10.70;99.90;;;;;;4912002;28;38660;-83
2024/02/11 12:14:16;;;;;;;20.17;7.97;;;10.60;99.90;;;;;;4910127;28;37682;-83
2024/02/11 12:16:45;;;;;;;24.83;8.77;;;10.70;99.90;;;;;;4925084;28;37508;-83
2024/02/11 12:19:11;;;;;;;19.20;8.23;;;10.70;99.90;;;;;;4902468;28;37848;-79
2024/02/11 12:21:38;;;;;;;26.53;11.80;;;10.70;99.90;;;;;;4906226;28;39476;-80
2024/02/11 12:24:05;;;;;;;27.80;12.97;;;10.80;99.90;;;;;;4904761;28;37755;-75
2024/02/11 12:26:32;;;;;;;31.77;14.33;;;10.70;99.90;;;;;;4909453;28;38044;-81
2024/02/11 12:28:58;;;;;;;30.87;14.23;;;10.60;99.90;;;;;;4906770;28;36294;-77
2024/02/11 12:31:26;;;;;;;21.37;13.00;;;10.60;99.90;;;;;;4910615;28;39249;-78
2024/02/11 12:33:53;;;;;;;18.27;11.57;;;10.60;99.90;;;;;;4911220;29;37552;-79
2024/02/11 12:36:27;;;;;;;22.10;12.20;;;10.60;99.90;;;;;;4909222;28;37067;-78
2024/02/11 12:38:55;;;;;;;20.55;10.35;;;10.60;99.90;;;;;;4908433;28;36854;-79
2024/02/11 12:41:24;;;;;;;17.07;11.30;;;10.60;99.90;;;;;;4910694;28;37645;-81
2024/02/11 12:43:52;;;;;;;22.53;11.30;;;10.60;99.90;;;;;;4912524;28;37287;-78
2024/02/11 12:46:18;;;;;;;16.87;9.57;;;10.60;99.90;;;;;;4910029;28;37283;-81
2024/02/11 12:48:45;;;;;;;18.87;9.23;;;10.60;99.90;;;;;;4909518;29;36737;-82
2024/02/11 12:51:14;;;;;;;15.65;8.18;;;10.60;99.90;;;;;;4907470;28;37892;-79
2024/02/11 12:53:52;;;;;;;16.02;7.93;;;10.60;99.90;;;;;;4906181;29;37537;-79
2024/02/11 12:56:18;;;;;;;18.67;8.83;;;10.60;99.90;;;;;;4904804;28;37135;-76
2024/02/11 12:58:46;;;;;;;15.47;8.63;;;10.70;99.90;;;;;;4909202;28;34835;-77
2024/02/11 13:01:14;;;;;;;12.18;7.97;;;10.70;99.90;;;;;;4920205;28;37631;-80
2024/02/11 13:03:42;;;;;;;16.43;8.90;;;10.60;99.90;;;;;;4908497;28;38450;-76
2024/02/11 13:06:09;;;;;;;13.90;7.57;;;10.70;99.90;;;;;;4905823;28;37317;-76
2024/02/11 13:08:36;;;;;;;18.33;8.53;;;10.50;99.90;;;;;;4906476;28;36953;-75
2024/02/11 13:11:05;;;;;;;16.33;8.83;;;10.50;99.90;;;;;;4898107;28;41218;-78
2024/02/11 13:13:31;;;;;;;19.13;7.87;;;10.50;99.90;;;;;;4899659;28;48910;-80
2024/02/11 13:16:00;;;;;;;14.27;8.07;;;10.40;99.90;;;;;;4902400;29;38118;-77
2024/02/11 13:18:36;;;;;;;22.30;9.43;;;10.40;99.90;;;;;;4907025;29;37257;-84
2024/02/11 13:21:03;;;;;;;13.23;8.25;;;10.40;99.90;;;;;;4911601;28;39450;-80
2024/02/11 13:23:30;;;;;;;15.60;7.90;;;10.40;99.90;;;;;;4905556;29;37281;-78
2024/02/11 13:25:56;;;;;;;16.73;8.67;;;10.40;99.90;;;;;;4904594;28;39020;-81
2024/02/11 13:28:22;;;;;;;18.30;8.27;;;10.50;99.90;;;;;;4903335;28;37523;-79
2024/02/11 13:30:51;;;;;;;17.97;8.67;;;10.40;99.90;;;;;;4911006;28;37624;-84
2024/02/11 13:33:18;;;;;;;22.57;9.00;;;10.40;99.90;;;;;;4910069;28;38957;-80
2024/02/11 13:35:46;;;;;;;21.52;8.95;;;10.50;99.90;;;;;;4912832;28;37098;-80
2024/02/11 13:38:15;;;;;;;20.80;8.70;;;10.50;99.90;;;;;;4912149;28;37348;-83
2024/02/11 13:40:45;;;;;;;17.03;8.23;;;10.60;99.90;;;;;;4913000;28;38749;-83
2024/02/11 13:43:14;;;;;;;19.00;8.90;;;10.60;99.90;;;;;;4912490;28;39296;-83
2024/02/11 13:45:43;;;;;;;20.50;7.78;;;10.80;99.90;;;;;;4910804;28;37457;-82
2024/02/11 13:48:10;;;;;;;18.35;7.43;;;10.90;99.90;;;;;;4913046;29;36320;-82
2024/02/11 13:50:36;;;;;;;12.98;6.90;;;10.90;99.90;;;;;;4912391;28;39035;-83
2024/02/11 13:53:04;;;;;;;16.85;7.82;;;10.90;99.90;;;;;;4907161;28;38607;-80
2024/02/11 13:55:30;;;;;;;18.63;7.70;;;11.00;99.90;;;;;;4911243;28;38983;-83
2024/02/11 13:57:56;;;;;;;12.85;7.18;;;11.00;99.90;;;;;;4910509;28;37281;-81
2024/02/11 14:00:22;;;;;;;16.20;7.18;;;11.20;99.90;;;;;;4908986;28;39839;-80
2024/02/11 14:02:49;;;;;;;19.92;8.13;;;11.20;99.90;;;;;;4908346;29;39090;-81
2024/02/11 14:05:15;;;;;;;15.00;7.65;;;11.20;99.90;;;;;;4907663;28;37281;-82
2024/02/11 14:07:41;;;;;;;17.08;7.00;;;11.20;99.90;;;;;;4910426;29;36992;-81
2024/02/11 14:10:08;;;;;;;17.33;6.97;;;11.20;99.90;;;;;;4906553;28;39707;-81
2024/02/11 14:12:38;;;;;;;14.55;6.53;;;11.20;99.90;;;;;;4908305;29;38609;-83
2024/02/11 14:15:14;;;;;;;17.88;7.00;;;11.10;99.90;;;;;;4909815;28;38004;-83
2024/02/11 14:17:48;;;;;;;11.68;5.97;;;11.10;99.90;;;;;;4908305;28;47447;-84
2024/02/11 14:20:15;;;;;;;12.00;5.45;;;11.00;99.90;;;;;;4904781;28;37789;-83
2024/02/11 14:22:42;;;;;;;14.98;5.82;;;10.90;99.90;;;;;;4910954;28;38605;-82
2024/02/11 14:25:14;;;;;;;15.77;6.05;;;10.90;99.90;;;;;;4908927;28;38342;-82
2024/02/11 14:27:48;;;;;;;13.40;5.70;;;10.90;99.90;;;;;;4907718;29;37630;-82
2024/02/11 14:30:18;;;;;;;14.63;6.50;;;10.90;99.90;;;;;;4910924;28;37788;-82
2024/02/11 14:32:48;;;;;;;11.37;5.73;;;10.90;99.90;;;;;;4908946;28;37042;-84
2024/02/11 14:35:15;;;;;;;16.57;6.47;;;10.80;99.90;;;;;;4928528;28;37256;-84
2024/02/11 14:37:41;;;;;;;15.45;6.03;;;10.80;99.90;;;;;;4910592;29;36260;-83
2024/02/11 14:40:14;;;;;;;13.27;6.17;;;10.80;99.90;;;;;;4906359;28;39148;-82
2024/02/11 14:42:41;;;;;;;11.07;5.78;;;10.80;99.90;;;;;;4905833;29;37532;-82